sensor_id;sensor_type;location;lat;lon;timestamp;P1;durP1;ratioP1;P2;durP2;ratioP2
75125;SDS011;63699;45.442;11.510;2022-09-25T00:00:32;8.95;;;5.40;;
75125;SDS011;63699;45.442;11.510;2022-09-25T00:02:58;6.95;;;4.82;;
75125;SDS011;63699;45.442;11.510;2022-09-25T00:05:24;13.02;;;5.25;;
75125;SDS011;63699;45.442;11.510;2022-09-25T00:07:49;11.45;;;5.22;;
75125;SDS011;63699;45.442;11.510;2022-09-25T00:10:15;7.07;;;5.10;;
75125;SDS011;63699;45.442;11.510;2022-09-25T00:12:41;9.55;;;5.18;;
75125;SDS011;63699;45.442;11.510;2022-09-25T00:15:07;7.70;;;4.93;;
75125;SDS011;63699;45.442;11.510;2022-09-25T00:17:33;9.18;;;4.97;;
75125;SDS011;63699;45.442;11.510;2022-09-25T00:19:59;11.35;;;5.88;;
75125;SDS011;63699;45.442;11.510;2022-09-25T00:22:24;7.18;;;4.97;;
75125;SDS011;63699;45.442;11.510;2022-09-25T00:24:50;10.00;;;5.00;;
75125;SDS011;63699;45.442;11.510;2022-09-25T00:27:16;9.25;;;4.90;;
75125;SDS011;63699;45.442;11.510;2022-09-25T00:29:42;10.65;;;5.50;;
75125;SDS011;63699;45.442;11.510;2022-09-25T00:32:08;7.22;;;5.00;;
75125;SDS011;63699;45.442;11.510;2022-09-25T00:34:36;9.15;;;5.25;;
75125;SDS011;63699;45.442;11.510;2022-09-25T00:37:02;7.05;;;5.00;;
75125;SDS011;63699;45.442;11.510;2022-09-25T00:39:28;10.65;;;4.68;;
75125;SDS011;63699;45.442;11.510;2022-09-25T00:41:55;6.80;;;5.00;;
75125;SDS011;63699;45.442;11.510;2022-09-25T00:47:26;9.80;;;4.78;;
75125;SDS011;63699;45.442;11.510;2022-09-25T00:49:57;9.48;;;4.95;;
75125;SDS011;63699;45.442;11.510;2022-09-25T00:52:26;7.50;;;4.40;;
75125;SDS011;63699;45.442;11.510;2022-09-25T00:54:53;6.50;;;4.85;;
75125;SDS011;63699;45.442;11.510;2022-09-25T00:57:26;6.32;;;4.50;;
75125;SDS011;63699;45.442;11.510;2022-09-25T00:59:56;11.05;;;5.28;;
75125;SDS011;63699;45.442;11.510;2022-09-25T01:04:50;7.53;;;4.82;;
75125;SDS011;63699;45.442;11.510;2022-09-25T01:07:16;8.27;;;4.88;;
75125;SDS011;63699;45.442;11.510;2022-09-25T01:09:43;10.25;;;5.30;;
75125;SDS011;63699;45.442;11.510;2022-09-25T01:12:10;8.40;;;5.00;;
75125;SDS011;63699;45.442;11.510;2022-09-25T01:14:36;6.95;;;4.90;;
75125;SDS011;63699;45.442;11.510;2022-09-25T01:17:10;6.80;;;4.57;;
75125;SDS011;63699;45.442;11.510;2022-09-25T01:19:52;10.63;;;4.57;;
75125;SDS011;63699;45.442;11.510;2022-09-25T01:25:21;8.02;;;4.93;;
75125;SDS011;63699;45.442;11.510;2022-09-25T01:27:59;9.95;;;4.95;;
75125;SDS011;63699;45.442;11.510;2022-09-25T01:30:38;9.07;;;4.57;;
75125;SDS011;63699;45.442;11.510;2022-09-25T01:33:09;6.68;;;4.82;;
75125;SDS011;63699;45.442;11.510;2022-09-25T01:36:01;8.48;;;4.55;;
75125;SDS011;63699;45.442;11.510;2022-09-25T01:41:23;7.57;;;4.65;;
75125;SDS011;63699;45.442;11.510;2022-09-25T01:46:50;10.55;;;4.60;;
75125;SDS011;63699;45.442;11.510;2022-09-25T01:49:27;13.10;;;4.88;;
75125;SDS011;63699;45.442;11.510;2022-09-25T01:51:56;6.10;;;4.90;;
75125;SDS011;63699;45.442;11.510;2022-09-25T01:54:27;9.80;;;4.60;;
75125;SDS011;63699;45.442;11.510;2022-09-25T01:56:58;6.28;;;4.20;;
75125;SDS011;63699;45.442;11.510;2022-09-25T01:59:36;6.55;;;4.50;;
75125;SDS011;63699;45.442;11.510;2022-09-25T02:02:09;6.88;;;4.82;;
75125;SDS011;63699;45.442;11.510;2022-09-25T02:04:38;8.30;;;4.30;;
75125;SDS011;63699;45.442;11.510;2022-09-25T02:07:11;7.53;;;4.75;;
75125;SDS011;63699;45.442;11.510;2022-09-25T02:09:46;8.23;;;4.47;;
75125;SDS011;63699;45.442;11.510;2022-09-25T02:12:30;6.40;;;4.00;;
75125;SDS011;63699;45.442;11.510;2022-09-25T02:15:02;6.90;;;4.53;;
75125;SDS011;63699;45.442;11.510;2022-09-25T02:17:37;6.82;;;3.92;;
75125;SDS011;63699;45.442;11.510;2022-09-25T02:20:45;8.35;;;4.15;;
75125;SDS011;63699;45.442;11.510;2022-09-25T02:23:21;7.22;;;4.78;;
75125;SDS011;63699;45.442;11.510;2022-09-25T02:28:28;7.32;;;4.18;;
75125;SDS011;63699;45.442;11.510;2022-09-25T02:30:55;7.78;;;4.45;;
75125;SDS011;63699;45.442;11.510;2022-09-25T02:33:23;6.00;;;4.15;;
75125;SDS011;63699;45.442;11.510;2022-09-25T02:35:50;4.03;;;3.58;;
75125;SDS011;63699;45.442;11.510;2022-09-25T02:38:16;5.50;;;4.05;;
75125;SDS011;63699;45.442;11.510;2022-09-25T02:40:53;4.85;;;3.47;;
75125;SDS011;63699;45.442;11.510;2022-09-25T02:46:36;4.93;;;4.00;;
75125;SDS011;63699;45.442;11.510;2022-09-25T02:51:45;6.28;;;3.65;;
75125;SDS011;63699;45.442;11.510;2022-09-25T02:54:23;4.75;;;3.75;;
75125;SDS011;63699;45.442;11.510;2022-09-25T02:57:06;5.70;;;3.63;;
75125;SDS011;63699;45.442;11.510;2022-09-25T02:59:43;5.07;;;4.05;;
75125;SDS011;63699;45.442;11.510;2022-09-25T03:02:14;5.65;;;4.10;;
75125;SDS011;63699;45.442;11.510;2022-09-25T03:04:40;5.30;;;4.03;;
75125;SDS011;63699;45.442;11.510;2022-09-25T03:07:06;5.22;;;3.85;;
75125;SDS011;63699;45.442;11.510;2022-09-25T03:09:34;5.40;;;4.00;;
75125;SDS011;63699;45.442;11.510;2022-09-25T03:12:01;5.30;;;3.92;;
75125;SDS011;63699;45.442;11.510;2022-09-25T03:14:28;5.28;;;3.78;;
75125;SDS011;63699;45.442;11.510;2022-09-25T03:16:55;6.10;;;4.03;;
75125;SDS011;63699;45.442;11.510;2022-09-25T03:19:26;4.75;;;3.65;;
75125;SDS011;63699;45.442;11.510;2022-09-25T03:21:52;5.75;;;3.83;;
75125;SDS011;63699;45.442;11.510;2022-09-25T03:24:18;6.60;;;4.60;;
75125;SDS011;63699;45.442;11.510;2022-09-25T03:26:44;5.35;;;3.80;;
75125;SDS011;63699;45.442;11.510;2022-09-25T03:29:11;4.97;;;4.03;;
75125;SDS011;63699;45.442;11.510;2022-09-25T03:31:38;5.95;;;3.72;;
75125;SDS011;63699;45.442;11.510;2022-09-25T03:34:06;5.15;;;3.80;;
75125;SDS011;63699;45.442;11.510;2022-09-25T03:36:32;5.18;;;3.70;;
75125;SDS011;63699;45.442;11.510;2022-09-25T03:38:59;5.40;;;4.03;;
75125;SDS011;63699;45.442;11.510;2022-09-25T03:41:29;6.00;;;4.10;;
75125;SDS011;63699;45.442;11.510;2022-09-25T03:43:56;5.07;;;3.70;;
75125;SDS011;63699;45.442;11.510;2022-09-25T03:46:23;5.80;;;3.75;;
75125;SDS011;63699;45.442;11.510;2022-09-25T03:48:51;5.57;;;3.90;;
75125;SDS011;63699;45.442;11.510;2022-09-25T03:51:18;6.13;;;4.15;;
75125;SDS011;63699;45.442;11.510;2022-09-25T03:53:45;4.80;;;3.70;;
75125;SDS011;63699;45.442;11.510;2022-09-25T03:56:16;5.95;;;3.90;;
75125;SDS011;63699;45.442;11.510;2022-09-25T04:01:13;6.72;;;3.80;;
75125;SDS011;63699;45.442;11.510;2022-09-25T04:03:39;4.10;;;3.50;;
75125;SDS011;63699;45.442;11.510;2022-09-25T04:06:07;4.25;;;3.15;;
75125;SDS011;63699;45.442;11.510;2022-09-25T04:08:34;4.53;;;3.50;;
75125;SDS011;63699;45.442;11.510;2022-09-25T04:11:00;4.95;;;3.70;;
75125;SDS011;63699;45.442;11.510;2022-09-25T04:13:28;5.13;;;4.07;;
75125;SDS011;63699;45.442;11.510;2022-09-25T04:15:59;4.70;;;3.80;;
75125;SDS011;63699;45.442;11.510;2022-09-25T04:18:25;5.20;;;3.70;;
75125;SDS011;63699;45.442;11.510;2022-09-25T04:20:55;5.32;;;3.47;;
75125;SDS011;63699;45.442;11.510;2022-09-25T04:23:28;5.93;;;4.22;;
75125;SDS011;63699;45.442;11.510;2022-09-25T04:25:54;5.20;;;3.50;;
75125;SDS011;63699;45.442;11.510;2022-09-25T04:28:20;5.50;;;3.55;;
75125;SDS011;63699;45.442;11.510;2022-09-25T04:30:47;5.30;;;4.00;;
75125;SDS011;63699;45.442;11.510;2022-09-25T04:33:14;4.97;;;3.70;;
75125;SDS011;63699;45.442;11.510;2022-09-25T04:35:59;4.53;;;3.47;;
75125;SDS011;63699;45.442;11.510;2022-09-25T04:38:25;4.57;;;3.63;;
75125;SDS011;63699;45.442;11.510;2022-09-25T04:40:51;4.65;;;3.40;;
75125;SDS011;63699;45.442;11.510;2022-09-25T04:43:16;4.63;;;3.55;;
75125;SDS011;63699;45.442;11.510;2022-09-25T04:45:42;4.70;;;3.60;;
75125;SDS011;63699;45.442;11.510;2022-09-25T04:48:08;4.40;;;3.63;;
75125;SDS011;63699;45.442;11.510;2022-09-25T04:50:33;4.78;;;3.85;;
75125;SDS011;63699;45.442;11.510;2022-09-25T04:52:59;5.22;;;3.80;;
75125;SDS011;63699;45.442;11.510;2022-09-25T04:55:25;5.38;;;3.72;;
75125;SDS011;63699;45.442;11.510;2022-09-25T04:57:52;4.53;;;3.55;;
75125;SDS011;63699;45.442;11.510;2022-09-25T05:00:18;5.38;;;3.72;;
75125;SDS011;63699;45.442;11.510;2022-09-25T05:02:45;4.40;;;3.45;;
75125;SDS011;63699;45.442;11.510;2022-09-25T05:05:11;7.82;;;3.85;;
75125;SDS011;63699;45.442;11.510;2022-09-25T05:07:37;4.13;;;3.45;;
75125;SDS011;63699;45.442;11.510;2022-09-25T05:10:03;4.00;;;3.40;;
75125;SDS011;63699;45.442;11.510;2022-09-25T05:12:30;5.05;;;3.47;;
75125;SDS011;63699;45.442;11.510;2022-09-25T05:14:56;4.38;;;3.38;;
75125;SDS011;63699;45.442;11.510;2022-09-25T05:17:21;4.32;;;3.35;;
75125;SDS011;63699;45.442;11.510;2022-09-25T05:19:47;4.65;;;3.65;;
75125;SDS011;63699;45.442;11.510;2022-09-25T05:22:12;4.68;;;3.38;;
75125;SDS011;63699;45.442;11.510;2022-09-25T05:24:38;4.53;;;3.58;;
75125;SDS011;63699;45.442;11.510;2022-09-25T05:27:03;5.10;;;3.58;;
75125;SDS011;63699;45.442;11.510;2022-09-25T05:29:29;4.43;;;3.65;;
75125;SDS011;63699;45.442;11.510;2022-09-25T05:31:55;4.43;;;3.55;;
75125;SDS011;63699;45.442;11.510;2022-09-25T05:34:21;4.38;;;3.40;;
75125;SDS011;63699;45.442;11.510;2022-09-25T05:36:46;3.88;;;3.33;;
75125;SDS011;63699;45.442;11.510;2022-09-25T05:39:12;4.45;;;3.33;;
75125;SDS011;63699;45.442;11.510;2022-09-25T05:41:37;4.18;;;3.30;;
75125;SDS011;63699;45.442;11.510;2022-09-25T05:44:03;4.50;;;3.38;;
75125;SDS011;63699;45.442;11.510;2022-09-25T05:46:36;3.83;;;3.38;;
75125;SDS011;63699;45.442;11.510;2022-09-25T05:49:02;4.75;;;3.72;;
75125;SDS011;63699;45.442;11.510;2022-09-25T05:51:27;5.20;;;3.42;;
75125;SDS011;63699;45.442;11.510;2022-09-25T05:53:53;5.05;;;3.33;;
75125;SDS011;63699;45.442;11.510;2022-09-25T05:56:19;5.47;;;3.50;;
75125;SDS011;63699;45.442;11.510;2022-09-25T05:58:49;4.63;;;3.45;;
75125;SDS011;63699;45.442;11.510;2022-09-25T06:01:15;4.45;;;3.50;;
75125;SDS011;63699;45.442;11.510;2022-09-25T06:03:41;5.03;;;3.22;;
75125;SDS011;63699;45.442;11.510;2022-09-25T06:06:06;4.82;;;3.40;;
75125;SDS011;63699;45.442;11.510;2022-09-25T06:08:32;3.50;;;3.03;;
75125;SDS011;63699;45.442;11.510;2022-09-25T06:10:59;4.30;;;3.30;;
75125;SDS011;63699;45.442;11.510;2022-09-25T06:13:26;4.38;;;3.42;;
75125;SDS011;63699;45.442;11.510;2022-09-25T06:15:54;4.53;;;3.38;;
75125;SDS011;63699;45.442;11.510;2022-09-25T06:18:21;4.85;;;3.45;;
75125;SDS011;63699;45.442;11.510;2022-09-25T06:20:48;4.60;;;3.42;;
75125;SDS011;63699;45.442;11.510;2022-09-25T06:23:14;4.45;;;3.30;;
75125;SDS011;63699;45.442;11.510;2022-09-25T06:25:41;4.40;;;3.58;;
75125;SDS011;63699;45.442;11.510;2022-09-25T06:28:06;3.88;;;3.35;;
75125;SDS011;63699;45.442;11.510;2022-09-25T06:30:34;3.95;;;3.17;;
75125;SDS011;63699;45.442;11.510;2022-09-25T06:33:01;4.40;;;3.30;;
75125;SDS011;63699;45.442;11.510;2022-09-25T06:35:35;4.13;;;3.20;;
75125;SDS011;63699;45.442;11.510;2022-09-25T06:38:04;4.13;;;3.28;;
75125;SDS011;63699;45.442;11.510;2022-09-25T06:40:30;4.00;;;3.33;;
75125;SDS011;63699;45.442;11.510;2022-09-25T06:42:57;4.30;;;3.00;;
75125;SDS011;63699;45.442;11.510;2022-09-25T06:45:24;4.10;;;3.20;;
75125;SDS011;63699;45.442;11.510;2022-09-25T06:47:52;5.20;;;3.40;;
75125;SDS011;63699;45.442;11.510;2022-09-25T06:50:23;4.40;;;3.35;;
75125;SDS011;63699;45.442;11.510;2022-09-25T06:52:51;3.58;;;2.85;;
75125;SDS011;63699;45.442;11.510;2022-09-25T06:55:16;4.65;;;3.45;;
75125;SDS011;63699;45.442;11.510;2022-09-25T06:57:44;3.85;;;3.15;;
75125;SDS011;63699;45.442;11.510;2022-09-25T07:00:10;4.55;;;3.42;;
75125;SDS011;63699;45.442;11.510;2022-09-25T07:02:36;4.25;;;3.50;;
75125;SDS011;63699;45.442;11.510;2022-09-25T07:05:20;4.13;;;3.10;;
75125;SDS011;63699;45.442;11.510;2022-09-25T07:07:46;4.97;;;3.20;;
75125;SDS011;63699;45.442;11.510;2022-09-25T07:10:12;4.07;;;3.05;;
75125;SDS011;63699;45.442;11.510;2022-09-25T07:12:40;3.65;;;2.95;;
75125;SDS011;63699;45.442;11.510;2022-09-25T07:15:06;4.28;;;3.13;;
75125;SDS011;63699;45.442;11.510;2022-09-25T07:17:32;4.65;;;3.42;;
75125;SDS011;63699;45.442;11.510;2022-09-25T07:19:58;4.32;;;3.38;;
75125;SDS011;63699;45.442;11.510;2022-09-25T07:22:23;3.42;;;2.90;;
75125;SDS011;63699;45.442;11.510;2022-09-25T07:24:49;3.67;;;2.97;;
75125;SDS011;63699;45.442;11.510;2022-09-25T07:27:14;3.47;;;2.90;;
75125;SDS011;63699;45.442;11.510;2022-09-25T07:29:40;3.63;;;2.97;;
75125;SDS011;63699;45.442;11.510;2022-09-25T07:32:05;4.00;;;2.92;;
75125;SDS011;63699;45.442;11.510;2022-09-25T07:34:33;3.80;;;3.08;;
75125;SDS011;63699;45.442;11.510;2022-09-25T07:36:59;4.00;;;3.28;;
75125;SDS011;63699;45.442;11.510;2022-09-25T07:39:24;3.90;;;3.15;;
75125;SDS011;63699;45.442;11.510;2022-09-25T07:41:52;3.55;;;3.08;;
75125;SDS011;63699;45.442;11.510;2022-09-25T07:44:18;3.28;;;2.95;;
75125;SDS011;63699;45.442;11.510;2022-09-25T07:46:44;4.35;;;3.20;;
75125;SDS011;63699;45.442;11.510;2022-09-25T07:49:10;3.83;;;3.03;;
75125;SDS011;63699;45.442;11.510;2022-09-25T07:51:36;3.38;;;2.85;;
75125;SDS011;63699;45.442;11.510;2022-09-25T07:54:01;3.50;;;3.10;;
75125;SDS011;63699;45.442;11.510;2022-09-25T07:56:27;4.07;;;3.22;;
75125;SDS011;63699;45.442;11.510;2022-09-25T07:58:52;3.90;;;3.28;;
75125;SDS011;63699;45.442;11.510;2022-09-25T08:01:18;3.63;;;2.92;;
75125;SDS011;63699;45.442;11.510;2022-09-25T08:03:44;3.80;;;2.88;;
75125;SDS011;63699;45.442;11.510;2022-09-25T08:06:10;4.00;;;2.78;;
75125;SDS011;63699;45.442;11.510;2022-09-25T08:08:40;3.55;;;2.92;;
75125;SDS011;63699;45.442;11.510;2022-09-25T08:11:11;3.53;;;2.78;;
75125;SDS011;63699;45.442;11.510;2022-09-25T08:13:38;3.35;;;2.92;;
75125;SDS011;63699;45.442;11.510;2022-09-25T08:16:06;3.80;;;3.10;;
75125;SDS011;63699;45.442;11.510;2022-09-25T08:18:36;3.33;;;2.80;;
75125;SDS011;63699;45.442;11.510;2022-09-25T08:21:03;4.00;;;3.00;;
75125;SDS011;63699;45.442;11.510;2022-09-25T08:23:29;3.60;;;2.90;;
75125;SDS011;63699;45.442;11.510;2022-09-25T08:25:55;3.60;;;3.10;;
75125;SDS011;63699;45.442;11.510;2022-09-25T08:28:21;3.35;;;2.83;;
75125;SDS011;63699;45.442;11.510;2022-09-25T08:30:47;5.40;;;2.80;;
75125;SDS011;63699;45.442;11.510;2022-09-25T08:33:13;3.88;;;2.95;;
75125;SDS011;63699;45.442;11.510;2022-09-25T08:35:39;3.45;;;2.58;;
75125;SDS011;63699;45.442;11.510;2022-09-25T08:38:08;3.97;;;3.00;;
75125;SDS011;63699;45.442;11.510;2022-09-25T08:40:38;10.52;;;3.10;;
75125;SDS011;63699;45.442;11.510;2022-09-25T08:43:15;3.80;;;3.03;;
75125;SDS011;63699;45.442;11.510;2022-09-25T08:45:45;6.10;;;3.08;;
75125;SDS011;63699;45.442;11.510;2022-09-25T08:48:32;8.23;;;3.20;;
75125;SDS011;63699;45.442;11.510;2022-09-25T08:51:20;7.95;;;3.03;;
75125;SDS011;63699;45.442;11.510;2022-09-25T08:53:46;6.68;;;3.08;;
75125;SDS011;63699;45.442;11.510;2022-09-25T08:56:12;4.70;;;2.90;;
75125;SDS011;63699;45.442;11.510;2022-09-25T08:58:40;5.88;;;2.63;;
75125;SDS011;63699;45.442;11.510;2022-09-25T09:01:23;4.88;;;2.80;;
75125;SDS011;63699;45.442;11.510;2022-09-25T09:03:52;11.00;;;3.10;;
75125;SDS011;63699;45.442;11.510;2022-09-25T09:06:29;8.82;;;3.10;;
75125;SDS011;63699;45.442;11.510;2022-09-25T09:09:01;8.65;;;2.88;;
75125;SDS011;63699;45.442;11.510;2022-09-25T09:11:35;3.90;;;2.65;;
75125;SDS011;63699;45.442;11.510;2022-09-25T09:14:05;7.10;;;2.83;;
75125;SDS011;63699;45.442;11.510;2022-09-25T09:16:41;6.53;;;3.20;;
75125;SDS011;63699;45.442;11.510;2022-09-25T09:19:09;4.60;;;2.85;;
75125;SDS011;63699;45.442;11.510;2022-09-25T09:21:37;6.38;;;3.10;;
75125;SDS011;63699;45.442;11.510;2022-09-25T09:34:56;3.28;;;2.67;;
75125;SDS011;63699;45.442;11.510;2022-09-25T09:37:35;4.78;;;2.85;;
75125;SDS011;63699;45.442;11.510;2022-09-25T09:40:15;7.38;;;2.65;;
75125;SDS011;63699;45.442;11.510;2022-09-25T09:45:52;5.75;;;2.88;;
75125;SDS011;63699;45.442;11.510;2022-09-25T09:48:27;3.88;;;2.42;;
75125;SDS011;63699;45.442;11.510;2022-09-25T09:51:20;5.07;;;2.70;;
75125;SDS011;63699;45.442;11.510;2022-09-25T09:53:52;4.00;;;2.58;;
75125;SDS011;63699;45.442;11.510;2022-09-25T09:56:23;4.68;;;2.45;;
75125;SDS011;63699;45.442;11.510;2022-09-25T09:58:56;4.50;;;2.58;;
75125;SDS011;63699;45.442;11.510;2022-09-25T10:01:30;3.78;;;2.70;;
75125;SDS011;63699;45.442;11.510;2022-09-25T10:06:36;4.25;;;2.50;;
75125;SDS011;63699;45.442;11.510;2022-09-25T10:09:04;4.47;;;2.50;;
75125;SDS011;63699;45.442;11.510;2022-09-25T10:11:32;6.82;;;2.80;;
75125;SDS011;63699;45.442;11.510;2022-09-25T10:13:58;4.45;;;2.80;;
75125;SDS011;63699;45.442;11.510;2022-09-25T10:16:27;5.95;;;3.05;;
75125;SDS011;63699;45.442;11.510;2022-09-25T10:21:57;4.15;;;2.80;;
75125;SDS011;63699;45.442;11.510;2022-09-25T10:30:27;5.18;;;2.80;;
75125;SDS011;63699;45.442;11.510;2022-09-25T10:35:42;4.05;;;2.70;;
75125;SDS011;63699;45.442;11.510;2022-09-25T10:38:23;6.03;;;2.60;;
75125;SDS011;63699;45.442;11.510;2022-09-25T10:46:24;6.38;;;2.40;;
75125;SDS011;63699;45.442;11.510;2022-09-25T10:49:25;4.83;;;2.77;;
75125;SDS011;63699;45.442;11.510;2022-09-25T10:52:12;5.70;;;2.40;;
75125;SDS011;63699;45.442;11.510;2022-09-25T10:54:39;3.60;;;2.50;;
75125;SDS011;63699;45.442;11.510;2022-09-25T10:57:25;7.38;;;2.58;;
75125;SDS011;63699;45.442;11.510;2022-09-25T11:00:03;5.38;;;2.67;;
75125;SDS011;63699;45.442;11.510;2022-09-25T11:02:32;5.63;;;3.08;;
75125;SDS011;63699;45.442;11.510;2022-09-25T11:05:03;4.43;;;2.53;;
75125;SDS011;63699;45.442;11.510;2022-09-25T11:07:30;5.00;;;2.83;;
75125;SDS011;63699;45.442;11.510;2022-09-25T11:09:57;3.15;;;2.42;;
75125;SDS011;63699;45.442;11.510;2022-09-25T11:12:23;3.75;;;2.63;;
75125;SDS011;63699;45.442;11.510;2022-09-25T11:14:55;7.22;;;2.85;;
75125;SDS011;63699;45.442;11.510;2022-09-25T11:20:21;5.97;;;2.55;;
75125;SDS011;63699;45.442;11.510;2022-09-25T11:28:39;4.53;;;2.53;;
75125;SDS011;63699;45.442;11.510;2022-09-25T11:31:23;4.57;;;2.47;;
75125;SDS011;63699;45.442;11.510;2022-09-25T11:36:31;3.72;;;2.50;;
75125;SDS011;63699;45.442;11.510;2022-09-25T11:39:37;5.90;;;2.50;;
75125;SDS011;63699;45.442;11.510;2022-09-25T11:42:32;4.50;;;2.30;;
75125;SDS011;63699;45.442;11.510;2022-09-25T11:45:06;4.30;;;2.50;;
75125;SDS011;63699;45.442;11.510;2022-09-25T11:47:55;6.53;;;2.38;;
75125;SDS011;63699;45.442;11.510;2022-09-25T11:51:00;3.90;;;2.45;;
75125;SDS011;63699;45.442;11.510;2022-09-25T11:54:07;4.55;;;2.83;;
75125;SDS011;63699;45.442;11.510;2022-09-25T11:56:37;4.13;;;2.47;;
75125;SDS011;63699;45.442;11.510;2022-09-25T12:01:55;4.38;;;2.50;;
75125;SDS011;63699;45.442;11.510;2022-09-25T12:04:31;3.35;;;2.25;;
75125;SDS011;63699;45.442;11.510;2022-09-25T12:17:50;4.13;;;2.35;;
75125;SDS011;63699;45.442;11.510;2022-09-25T12:20:36;3.45;;;2.40;;
75125;SDS011;63699;45.442;11.510;2022-09-25T12:31:40;5.90;;;2.25;;
75125;SDS011;63699;45.442;11.510;2022-09-25T12:37:39;6.15;;;2.80;;
75125;SDS011;63699;45.442;11.510;2022-09-25T12:47:56;4.22;;;2.60;;
75125;SDS011;63699;45.442;11.510;2022-09-25T12:50:31;7.85;;;3.20;;
75125;SDS011;63699;45.442;11.510;2022-09-25T12:55:51;5.35;;;2.90;;
75125;SDS011;63699;45.442;11.510;2022-09-25T12:58:38;9.25;;;3.38;;
75125;SDS011;63699;45.442;11.510;2022-09-25T13:01:21;8.00;;;3.20;;
75125;SDS011;63699;45.442;11.510;2022-09-25T13:06:57;7.82;;;3.78;;
75125;SDS011;63699;45.442;11.510;2022-09-25T13:09:41;6.10;;;4.05;;
75125;SDS011;63699;45.442;11.510;2022-09-25T13:15:15;10.38;;;4.97;;
75125;SDS011;63699;45.442;11.510;2022-09-25T13:17:43;6.93;;;4.10;;
75125;SDS011;63699;45.442;11.510;2022-09-25T13:25:47;8.93;;;4.80;;
75125;SDS011;63699;45.442;11.510;2022-09-25T13:28:22;7.70;;;4.53;;
75125;SDS011;63699;45.442;11.510;2022-09-25T13:31:04;11.50;;;4.78;;
75125;SDS011;63699;45.442;11.510;2022-09-25T13:33:36;10.88;;;4.70;;
75125;SDS011;63699;45.442;11.510;2022-09-25T13:36:09;9.13;;;4.88;;
75125;SDS011;63699;45.442;11.510;2022-09-25T13:38:56;10.90;;;4.60;;
75125;SDS011;63699;45.442;11.510;2022-09-25T13:42:00;8.27;;;4.65;;
75125;SDS011;63699;45.442;11.510;2022-09-25T14:00:20;5.60;;;3.70;;
75125;SDS011;63699;45.442;11.510;2022-09-25T14:02:46;8.02;;;3.95;;
75125;SDS011;63699;45.442;11.510;2022-09-25T14:05:16;7.25;;;4.03;;
75125;SDS011;63699;45.442;11.510;2022-09-25T14:07:46;7.88;;;3.90;;
75125;SDS011;63699;45.442;11.510;2022-09-25T14:10:15;7.72;;;3.75;;
75125;SDS011;63699;45.442;11.510;2022-09-25T14:12:46;7.38;;;4.38;;
75125;SDS011;63699;45.442;11.510;2022-09-25T14:15:27;10.10;;;4.00;;
75125;SDS011;63699;45.442;11.510;2022-09-25T14:18:03;8.07;;;4.07;;
75125;SDS011;63699;45.442;11.510;2022-09-25T14:20:34;10.18;;;4.07;;
75125;SDS011;63699;45.442;11.510;2022-09-25T14:23:13;8.57;;;3.60;;
75125;SDS011;63699;45.442;11.510;2022-09-25T14:25:50;7.03;;;3.47;;
75125;SDS011;63699;45.442;11.510;2022-09-25T14:28:22;7.03;;;3.55;;
75125;SDS011;63699;45.442;11.510;2022-09-25T14:30:51;6.93;;;3.53;;
75125;SDS011;63699;45.442;11.510;2022-09-25T14:36:17;8.35;;;3.83;;
75125;SDS011;63699;45.442;11.510;2022-09-25T14:44:44;7.55;;;3.80;;
75125;SDS011;63699;45.442;11.510;2022-09-25T14:47:46;6.10;;;3.33;;
75125;SDS011;63699;45.442;11.510;2022-09-25T14:50:24;7.28;;;3.38;;
75125;SDS011;63699;45.442;11.510;2022-09-25T14:52:53;5.07;;;3.10;;
75125;SDS011;63699;45.442;11.510;2022-09-25T14:55:22;6.63;;;3.42;;
75125;SDS011;63699;45.442;11.510;2022-09-25T14:57:52;5.40;;;3.25;;
75125;SDS011;63699;45.442;11.510;2022-09-25T15:00:22;7.30;;;3.63;;
75125;SDS011;63699;45.442;11.510;2022-09-25T15:02:49;5.50;;;3.15;;
75125;SDS011;63699;45.442;11.510;2022-09-25T15:05:31;6.85;;;3.35;;
75125;SDS011;63699;45.442;11.510;2022-09-25T15:07:59;5.18;;;3.15;;
75125;SDS011;63699;45.442;11.510;2022-09-25T15:13:04;7.57;;;3.42;;
75125;SDS011;63699;45.442;11.510;2022-09-25T15:15:37;6.15;;;3.40;;
75125;SDS011;63699;45.442;11.510;2022-09-25T15:18:05;6.10;;;3.20;;
75125;SDS011;63699;45.442;11.510;2022-09-25T15:20:36;6.13;;;3.45;;
75125;SDS011;63699;45.442;11.510;2022-09-25T15:23:15;5.68;;;3.17;;
75125;SDS011;63699;45.442;11.510;2022-09-25T15:25:43;5.60;;;3.40;;
75125;SDS011;63699;45.442;11.510;2022-09-25T15:28:16;6.68;;;3.08;;
75125;SDS011;63699;45.442;11.510;2022-09-25T15:30:43;4.72;;;2.80;;
75125;SDS011;63699;45.442;11.510;2022-09-25T15:35:58;6.05;;;2.25;;
75125;SDS011;63699;45.442;11.510;2022-09-25T15:38:34;8.23;;;2.40;;
75125;SDS011;63699;45.442;11.510;2022-09-25T15:41:01;7.13;;;2.35;;
75125;SDS011;63699;45.442;11.510;2022-09-25T15:43:31;5.20;;;2.40;;
75125;SDS011;63699;45.442;11.510;2022-09-25T15:48:33;4.57;;;2.33;;
75125;SDS011;63699;45.442;11.510;2022-09-25T15:51:13;4.80;;;2.97;;
75125;SDS011;63699;45.442;11.510;2022-09-25T15:53:44;6.10;;;2.60;;
75125;SDS011;63699;45.442;11.510;2022-09-25T15:56:25;6.53;;;2.25;;
75125;SDS011;63699;45.442;11.510;2022-09-25T15:59:05;6.25;;;2.50;;
75125;SDS011;63699;45.442;11.510;2022-09-25T16:01:44;4.00;;;2.47;;
75125;SDS011;63699;45.442;11.510;2022-09-25T16:04:29;5.13;;;2.58;;
75125;SDS011;63699;45.442;11.510;2022-09-25T16:07:35;4.90;;;2.13;;
75125;SDS011;63699;45.442;11.510;2022-09-25T16:15:42;4.07;;;2.28;;
75125;SDS011;63699;45.442;11.510;2022-09-25T16:23:51;3.10;;;2.00;;
75125;SDS011;63699;45.442;11.510;2022-09-25T16:26:26;5.10;;;2.20;;
75125;SDS011;63699;45.442;11.510;2022-09-25T16:32:09;3.15;;;2.00;;
75125;SDS011;63699;45.442;11.510;2022-09-25T16:34:40;5.68;;;2.33;;
75125;SDS011;63699;45.442;11.510;2022-09-25T16:37:24;3.53;;;2.20;;
75125;SDS011;63699;45.442;11.510;2022-09-25T16:40:40;4.60;;;2.50;;
75125;SDS011;63699;45.442;11.510;2022-09-25T16:42:49;3.80;;;2.42;;
75125;SDS011;63699;45.442;11.510;2022-09-25T16:47:44;3.55;;;2.03;;
75125;SDS011;63699;45.442;11.510;2022-09-25T16:50:11;4.45;;;2.20;;
75125;SDS011;63699;45.442;11.510;2022-09-25T16:52:37;4.55;;;2.00;;
75125;SDS011;63699;45.442;11.510;2022-09-25T16:55:10;2.83;;;1.90;;
75125;SDS011;63699;45.442;11.510;2022-09-25T16:57:42;3.40;;;2.10;;
75125;SDS011;63699;45.442;11.510;2022-09-25T17:00:12;2.92;;;1.85;;
75125;SDS011;63699;45.442;11.510;2022-09-25T17:02:40;3.42;;;2.00;;
75125;SDS011;63699;45.442;11.510;2022-09-25T17:05:10;4.60;;;1.90;;
75125;SDS011;63699;45.442;11.510;2022-09-25T17:07:41;10.10;;;2.40;;
75125;SDS011;63699;45.442;11.510;2022-09-25T17:10:10;8.35;;;2.00;;
75125;SDS011;63699;45.442;11.510;2022-09-25T17:12:37;6.13;;;1.80;;
75125;SDS011;63699;45.442;11.510;2022-09-25T17:15:03;3.10;;;1.90;;
75125;SDS011;63699;45.442;11.510;2022-09-25T17:17:30;3.55;;;2.03;;
75125;SDS011;63699;45.442;11.510;2022-09-25T17:19:56;3.83;;;1.77;;
75125;SDS011;63699;45.442;11.510;2022-09-25T17:22:21;3.13;;;1.77;;
75125;SDS011;63699;45.442;11.510;2022-09-25T17:24:53;4.35;;;2.00;;
75125;SDS011;63699;45.442;11.510;2022-09-25T17:27:20;3.10;;;2.15;;
75125;SDS011;63699;45.442;11.510;2022-09-25T17:29:46;6.55;;;2.05;;
75125;SDS011;63699;45.442;11.510;2022-09-25T17:32:12;6.65;;;1.95;;
75125;SDS011;63699;45.442;11.510;2022-09-25T17:34:42;3.10;;;2.10;;
75125;SDS011;63699;45.442;11.510;2022-09-25T17:37:09;3.63;;;2.03;;
75125;SDS011;63699;45.442;11.510;2022-09-25T17:39:36;4.55;;;1.80;;
75125;SDS011;63699;45.442;11.510;2022-09-25T17:42:02;2.63;;;1.70;;